createdAt,value
2022-10-07T00:03:44.002Z,102006.31
2022-10-07T00:07:46.640Z,102008.94
2022-10-07T00:11:48.541Z,102014.28
2022-10-07T00:15:50.608Z,102020.41
2022-10-07T00:19:52.198Z,102011.75
2022-10-07T00:23:54.099Z,102010.72
2022-10-07T00:27:55.905Z,102010.88
2022-10-07T00:31:57.828Z,102004.91
2022-10-07T00:35:59.604Z,102000.75
2022-10-07T00:40:01.645Z,102007.56
2022-10-07T00:44:31.282Z,102001.41
2022-10-07T00:48:36.113Z,102003.16
2022-10-07T00:52:42.433Z,102005.84
2022-10-07T00:56:47.063Z,102009.47
2022-10-07T01:00:48.734Z,102015.50
2022-10-07T01:04:52.795Z,102004.28
2022-10-07T01:08:54.762Z,101996.47
2022-10-07T01:13:18.740Z,102001.59
2022-10-07T01:17:35.897Z,102004.25
2022-10-07T01:21:52.683Z,102002.47
2022-10-07T01:26:04.270Z,102007.66
2022-10-07T01:30:08.159Z,102000.06
2022-10-07T01:34:11.739Z,102004.47
2022-10-07T01:38:17.878Z,102009.63
2022-10-07T01:42:21.171Z,102014.09
2022-10-07T01:46:26.781Z,102009.72
2022-10-07T01:50:33.332Z,102013.25
2022-10-07T01:55:09.190Z,102012.34
2022-10-07T01:59:31.066Z,102015.94
2022-10-07T02:03:54.692Z,102021.06
2022-10-07T02:08:30.181Z,102008.94
2022-10-07T02:12:40.190Z,102017.63
2022-10-07T02:16:47.837Z,102019.38
2022-10-07T02:20:52.547Z,102019.41
2022-10-07T02:24:59.154Z,102018.53
2022-10-07T02:29:06.819Z,102017.66
2022-10-07T02:33:10.376Z,102016.88
2022-10-07T02:37:19.725Z,102019.38
2022-10-07T02:41:33.736Z,102011.72
2022-10-07T02:46:06.043Z,102013.44
2022-10-07T02:50:12.838Z,102010.88
2022-10-07T02:54:24.286Z,102010.94
2022-10-07T02:58:26.577Z,102010.97
2022-10-07T03:02:50.217Z,102010.25
2022-10-07T03:06:52.346Z,102014.44
2022-10-07T03:10:54.273Z,102011.97
2022-10-07T03:14:56.322Z,102014.56
2022-10-07T03:19:01.472Z,102022.41
2022-10-07T03:23:11.660Z,102013.72
2022-10-07T03:27:13.989Z,102012.03
2022-10-07T03:31:16.443Z,102014.56
2022-10-07T03:35:22.663Z,102017.19
2022-10-07T03:39:24.590Z,102015.34
2022-10-07T03:43:28.896Z,102022.09
2022-10-07T03:47:30.799Z,102019.47
2022-10-07T03:51:33.081Z,102011.56
2022-10-07T03:55:36.818Z,102016.72
2022-10-07T03:59:39.348Z,102012.34
2022-10-07T04:03:41.378Z,102008.88
2022-10-07T04:07:48.185Z,101992.41
2022-10-07T04:11:51.249Z,101999.28
2022-10-07T04:15:54.701Z,101996.69
2022-10-07T04:19:58.018Z,101991.44
2022-10-07T04:24:00.563Z,102000.97
2022-10-07T04:28:06.494Z,101990.59
2022-10-07T04:32:09.807Z,101988.06
2022-10-07T04:36:12.862Z,101993.28
2022-10-07T04:40:31.094Z,101996.88
2022-10-07T04:44:33.353Z,101992.50
2022-10-07T04:48:44.088Z,101982.16
2022-10-07T04:52:46.483Z,101991.72
2022-10-07T04:56:49.975Z,101983.94
2022-10-07T05:00:55.889Z,101988.28
2022-10-07T05:04:59.890Z,101987.38
2022-10-07T05:09:02.004Z,101982.09
2022-10-07T05:13:12.395Z,101986.44
2022-10-07T05:17:15.299Z,101982.84
2022-10-07T05:21:17.401Z,101988.75
2022-10-07T05:25:21.522Z,101998.28
2022-10-07T05:29:24.209Z,101996.47
2022-10-07T05:33:29.349Z,102005.06
2022-10-07T05:37:32.405Z,102000.72
2022-10-07T05:41:38.446Z,102013.53
2022-10-07T05:45:47.637Z,102009.00
2022-10-07T05:49:49.355Z,102008.88
2022-10-07T05:53:56.047Z,102014.03
2022-10-07T05:58:00.688Z,102010.44
2022-10-07T06:02:02.774Z,102010.19
2022-10-07T06:06:05.197Z,102012.66
2022-10-07T06:10:26.333Z,102018.63
2022-10-07T06:14:28.443Z,102018.31
2022-10-07T06:18:30.615Z,102014.53
2022-10-07T06:22:34.046Z,102017.19
2022-10-07T06:26:36.036Z,102025.56
2022-10-07T06:30:38.324Z,102021.69
2022-10-07T06:34:40.280Z,102013.44
2022-10-07T06:38:46.834Z,102018.44
2022-10-07T06:42:49.393Z,102007.81
2022-10-07T06:47:14.655Z,102010.81
2022-10-07T06:51:20.501Z,102014.56
2022-10-07T06:55:24.222Z,102014.03
2022-10-07T06:59:26.341Z,102003.00
2022-10-07T07:03:35.315Z,102001.50
2022-10-07T07:07:38.240Z,101997.50
2022-10-07T07:11:43.363Z,101990.06
2022-10-07T07:15:58.979Z,101979.75
2022-10-07T07:20:03.882Z,101979.91
2022-10-07T07:24:07.738Z,101973.59
2022-10-07T07:28:09.968Z,101958.72
2022-10-07T07:32:37.244Z,101963.78
2022-10-07T07:36:44.767Z,101959.34
2022-10-07T07:40:47.276Z,101961.50
2022-10-07T07:44:50.056Z,101961.72
2022-10-07T07:48:54.836Z,101963.53
2022-10-07T07:52:57.732Z,101959.03
2022-10-07T07:57:00.337Z,101965.06
2022-10-07T08:01:09.176Z,101986.19
2022-10-07T08:05:11.098Z,102013.53
2022-10-07T08:09:13.139Z,102030.63
2022-10-07T08:13:18.332Z,102040.56
2022-10-07T08:17:20.318Z,102043.00
2022-10-07T08:21:25.121Z,102050.41
2022-10-07T08:25:30.559Z,102051.50
2022-10-07T08:29:35.412Z,102068.38
2022-10-07T08:33:39.715Z,102059.81
2022-10-07T08:37:41.512Z,102057.59
2022-10-07T08:42:01.589Z,102039.72
2022-10-07T08:46:04.851Z,102048.59
2022-10-07T08:50:19.681Z,102050.34
2022-10-07T08:54:27.589Z,102052.22
2022-10-07T08:58:43.392Z,102053.19
2022-10-07T09:03:09.868Z,102047.41
2022-10-07T09:07:16.107Z,102042.66
2022-10-07T09:11:25.948Z,102037.38
2022-10-07T09:15:40.087Z,102031.84
2022-10-07T09:19:48.768Z,102031.09
2022-10-07T09:23:54.685Z,102029.88
2022-10-07T09:27:57.145Z,102021.81
2022-10-07T09:31:59.397Z,102016.22
2022-10-07T09:36:10.207Z,102010.47
2022-10-07T09:40:36.825Z,102012.91
2022-10-07T09:44:40.165Z,102009.28
2022-10-07T09:48:52.746Z,102001.16
2022-10-07T09:52:57.589Z,101994.03
2022-10-07T09:57:01.917Z,101983.91
2022-10-07T10:01:28.526Z,101978.72
2022-10-07T10:05:32.906Z,101985.41
2022-10-07T10:09:35.184Z,101965.06
2022-10-07T10:13:40.902Z,101964.44
2022-10-07T10:17:42.702Z,101958.97
2022-10-07T10:21:51.503Z,101954.41
2022-10-07T10:26:33.631Z,101941.69
2022-10-07T10:30:47.328Z,101942.63
2022-10-07T10:35:14.957Z,101933.91
2022-10-07T10:39:44.912Z,101927.06
2022-10-07T10:44:03.925Z,101923.16
2022-10-07T10:48:09.731Z,101923.38
2022-10-07T10:52:29.620Z,101908.47
2022-10-07T10:56:43.890Z,101903.41
2022-10-07T11:00:48.678Z,101885.75
2022-10-07T11:05:14.963Z,101891.56
2022-10-07T11:09:30.828Z,101881.75
2022-10-07T11:13:55.893Z,101867.72
2022-10-07T11:18:02.178Z,101860.16
2022-10-07T11:22:10.816Z,101847.25
2022-10-07T11:26:23.008Z,101843.81
2022-10-07T11:30:31.858Z,101835.44
2022-10-07T11:34:54.715Z,101822.06
2022-10-07T11:38:56.716Z,101811.03
2022-10-07T11:43:07.596Z,101810.28
2022-10-07T11:47:16.794Z,101805.69
2022-10-07T11:51:27.406Z,101789.16
2022-10-07T11:55:35.577Z,101786.16
2022-10-07T11:59:43.377Z,101783.22
2022-10-07T12:03:47.224Z,101773.53
2022-10-07T12:08:22.135Z,101765.84
2022-10-07T12:12:25.016Z,101750.88
2022-10-07T12:16:32.398Z,101748.47
2022-10-07T12:20:46.243Z,101743.50
2022-10-07T12:25:29.277Z,101738.38
2022-10-07T12:29:35.365Z,101743.00
2022-10-07T12:33:46.280Z,101733.06
2022-10-07T12:37:50.353Z,101730.91
2022-10-07T12:41:52.288Z,101722.69
2022-10-07T12:45:58.185Z,101721.00
2022-10-07T12:50:11.302Z,101714.44
2022-10-07T12:54:20.243Z,101698.94
2022-10-07T12:58:56.989Z,101691.47
2022-10-07T13:03:25.105Z,101685.66
2022-10-07T13:07:39.048Z,101670.88
2022-10-07T13:12:06.759Z,101679.47
2022-10-07T13:16:15.635Z,101671.81
2022-10-07T13:20:54.045Z,101660.81
2022-10-07T13:24:58.047Z,101648.25
2022-10-07T13:29:01.205Z,101651.16
2022-10-07T13:33:23.877Z,101643.75
2022-10-07T13:37:37.105Z,101629.84
2022-10-07T13:41:44.146Z,101625.00
2022-10-07T13:45:47.054Z,101613.97
2022-10-07T13:49:53.285Z,101613.88
2022-10-07T13:54:00.396Z,101609.97
2022-10-07T13:58:04.932Z,101597.59
2022-10-07T14:02:10.277Z,101596.53
2022-10-07T14:06:41.719Z,101591.44
2022-10-07T14:11:07.877Z,101582.25
2022-10-07T14:15:15.535Z,101572.94
2022-10-07T14:19:21.036Z,101567.59
2022-10-07T14:23:32.812Z,101558.94
2022-10-07T14:27:52.734Z,101550.84
2022-10-07T14:32:28.143Z,101546.22
2022-10-07T14:36:29.952Z,101538.69
2022-10-07T14:40:31.567Z,101523.59
2022-10-07T14:44:33.713Z,101526.84
2022-10-07T14:48:35.989Z,101516.16
2022-10-07T14:52:44.609Z,101510.44
2022-10-07T14:56:46.658Z,101497.25
2022-10-07T15:00:48.417Z,101492.78
2022-10-07T15:04:50.320Z,101489.31
2022-10-07T15:08:52.397Z,101475.88
2022-10-07T15:12:56.020Z,101472.75
2022-10-07T15:16:58.072Z,101465.22
2022-10-07T15:20:59.956Z,101463.63
2022-10-07T15:25:05.500Z,101462.91
2022-10-07T15:29:08.451Z,101452.88
2022-10-07T15:33:12.448Z,101441.22
2022-10-07T15:37:14.514Z,101434.31
2022-10-07T15:41:32.881Z,101420.84
2022-10-07T15:45:34.893Z,101403.47
2022-10-07T15:49:36.694Z,101390.78
2022-10-07T15:53:38.397Z,101395.03
2022-10-07T15:57:40.342Z,101377.03
2022-10-07T16:01:42.056Z,101380.78
2022-10-07T16:05:44.801Z,101357.00
2022-10-07T16:09:46.753Z,101349.16
2022-10-07T16:13:48.977Z,101347.63
2022-10-07T16:17:50.703Z,101336.53
2022-10-07T16:21:52.711Z,101330.38
2022-10-07T16:25:54.441Z,101326.22
2022-10-07T16:30:19.511Z,101320.72
2022-10-07T16:34:21.337Z,101309.06
2022-10-07T16:38:23.203Z,101295.13
2022-10-07T16:42:24.877Z,101298.97
2022-10-07T16:46:27.458Z,101295.56
2022-10-07T16:50:30.001Z,101296.50
2022-10-07T16:54:35.263Z,101285.38
2022-10-07T16:58:38.782Z,101289.53
2022-10-07T17:02:40.628Z,101277.97
2022-10-07T17:06:43.837Z,101269.97
2022-10-07T17:10:45.743Z,101258.25
2022-10-07T17:14:47.537Z,101259.19
2022-10-07T17:18:49.309Z,101258.44
2022-10-07T17:22:51.190Z,101257.47
2022-10-07T17:26:53.519Z,101255.63
2022-10-07T17:30:55.302Z,101259.19
2022-10-07T17:34:57.163Z,101251.53
2022-10-07T17:38:59.352Z,101251.63
2022-10-07T17:43:04.397Z,101243.97
2022-10-07T17:47:32.713Z,101241.81
2022-10-07T17:51:35.183Z,101230.44
2022-10-07T17:55:37.652Z,101235.44
2022-10-07T17:59:39.811Z,101226.50
2022-10-07T18:03:43.485Z,101223.50
2022-10-07T18:07:45.924Z,101218.63
2022-10-07T18:12:06.632Z,101209.69
2022-10-07T18:16:08.506Z,101204.88
2022-10-07T18:20:14.825Z,101198.88
2022-10-07T18:24:17.297Z,101199.44
2022-10-07T18:28:19.116Z,101198.03
2022-10-07T18:32:21.333Z,101199.03
2022-10-07T18:36:23.271Z,101196.75
2022-10-07T18:40:25.121Z,101192.41
2022-10-07T18:44:27.230Z,101192.47
2022-10-07T18:48:54.183Z,101200.06
2022-10-07T18:52:56.108Z,101197.28
2022-10-07T18:56:57.767Z,101196.31
2022-10-07T19:00:59.941Z,101194.03
2022-10-07T19:05:01.599Z,101197.34
2022-10-07T19:09:07.018Z,101198.19
2022-10-07T19:13:32.783Z,101196.72
2022-10-07T19:17:34.725Z,101191.38
2022-10-07T19:21:36.416Z,101191.91
2022-10-07T19:25:48.015Z,101197.69
2022-10-07T19:29:50.632Z,101193.38
2022-10-07T19:33:57.663Z,101190.50
2022-10-07T19:38:00.081Z,101187.22
2022-10-07T19:42:01.971Z,101182.22
2022-10-07T19:46:04.497Z,101175.34
2022-10-07T19:50:07.151Z,101170.31
2022-10-07T19:54:10.623Z,101163.09
2022-10-07T19:58:12.784Z,101168.44
2022-10-07T20:02:14.497Z,101163.34
2022-10-07T20:06:16.462Z,101158.25
2022-10-07T20:10:18.910Z,101159.25
2022-10-07T20:14:21.044Z,101153.47
2022-10-07T20:18:22.760Z,101154.66
2022-10-07T20:22:24.669Z,101152.88
2022-10-07T20:26:31.487Z,101151.50
2022-10-07T20:30:34.848Z,101143.25
2022-10-07T20:34:38.257Z,101138.25
2022-10-07T20:38:58.663Z,101138.56
2022-10-07T20:43:00.927Z,101131.94
2022-10-07T20:47:06.334Z,101129.06
2022-10-07T20:51:08.391Z,101128.81
2022-10-07T20:55:14.068Z,101128.03
2022-10-07T20:59:15.711Z,101127.44
2022-10-07T21:03:18.297Z,101121.50
2022-10-07T21:07:20.632Z,101120.53
2022-10-07T21:11:22.502Z,101112.06
2022-10-07T21:15:25.263Z,101114.38
2022-10-07T21:19:27.174Z,101105.00
2022-10-07T21:23:29.357Z,101104.69
2022-10-07T21:27:31.343Z,101098.16
2022-10-07T21:31:33.105Z,101091.34
2022-10-07T21:35:35.069Z,101077.94
2022-10-07T21:39:38.237Z,101080.75
2022-10-07T21:43:41.957Z,101071.78
2022-10-07T21:47:43.645Z,101074.00
2022-10-07T21:51:45.631Z,101066.13
2022-10-07T21:55:47.231Z,101064.19
2022-10-07T21:59:49.210Z,101059.41
2022-10-07T22:03:55.790Z,101053.44
2022-10-07T22:08:37.872Z,101055.47
2022-10-07T22:12:40.992Z,101044.13
2022-10-07T22:16:42.797Z,101043.41
2022-10-07T22:20:45.268Z,101037.22
2022-10-07T22:24:47.022Z,101036.63
2022-10-07T22:28:49.749Z,101025.16
2022-10-07T22:32:51.467Z,101025.16
2022-10-07T22:36:54.229Z,101018.56
2022-10-07T22:40:56.227Z,101009.63
2022-10-07T22:44:57.986Z,101007.97
2022-10-07T22:48:59.701Z,101002.06
2022-10-07T22:53:02.055Z,101001.16
2022-10-07T22:57:06.997Z,100995.06
2022-10-07T23:01:14.625Z,100999.44
2022-10-07T23:05:17.185Z,100993.34
2022-10-07T23:09:43.498Z,100987.19
2022-10-07T23:13:46.027Z,100984.78
2022-10-07T23:17:48.101Z,100985.38
2022-10-07T23:21:49.973Z,100969.09
2022-10-07T23:25:52.112Z,100973.66
2022-10-07T23:29:54.032Z,100971.50
2022-10-07T23:33:57.079Z,100966.56
2022-10-07T23:38:00.424Z,100963.09
2022-10-07T23:42:02.990Z,100953.81
2022-10-07T23:46:06.581Z,100961.69
2022-10-07T23:50:09.480Z,100956.00
2022-10-07T23:54:11.430Z,100951.78
2022-10-07T23:58:17.577Z,100944.81
